CheckWX is a tool to help pilots better visualize weather data.  It is not intended as a substitute for an official pre-flight weather briefing.

09:39:32 UTC

KMMI METAR
McMinn County Airport
Athens, Tennessee, USA
Current

25 mins ago

KMMI 200915Z AUTO 27005KT 9SM BKN028 OVC033 05/05 A3008 RMK A01
Observed
Feb-20 @ 09:15 UTC
Wind
  • 270° at 5 KTS
Visibility
14,484 meters
Flight Rules
MVFR
Cloud Levels
  • Broken at 2,800' AGL
  • Overcast at 3,300' AGL
Temperature
C / 41°F
Dewpoint
C / 41°F
Humidity
100%
Altimeter
30.08" Hg
Pressure
1018.62 hPa
Previous

45 mins ago

KMMI 200855Z AUTO 00000KT 10SM BKN026 OVC032 05/05 A3010 RMK A01
Observed
Feb-20 @ 08:55 UTC
Visibility
16,093 meters
Flight Rules
MVFR
Cloud Levels
  • Broken at 2,600' AGL
  • Overcast at 3,200' AGL
Temperature
C / 41°F
Dewpoint
C / 41°F
Humidity
100%
Altimeter
30.1" Hg
Pressure
1019.32 hPa
Previous

1 hour ago

KMMI 200835Z AUTO 00000KT 10SM OVC025 05/05 A3012 RMK A01
Observed
Feb-20 @ 08:35 UTC
Visibility
16,093 meters
Flight Rules
MVFR
Cloud Levels
  • Overcast at 2,500' AGL
Temperature
C / 41°F
Dewpoint
C / 41°F
Humidity
100%
Altimeter
30.12" Hg
Pressure
1020.02 hPa